Погода Чалтырьна 2 недели

Ростовская область, Россия

20 мая-02 июня
  • 20мая
    Сегодня
    +10°
    +24°
    Практически безоблачно
    ВремяПогодаТемператураВлажностьДавлениеВетер, м/сВероятность осадков
    00:00Ясно и безоблачно+11°C86 %759 мм1.9 м/с2 %
    03:00Ясно и безоблачно+9°C94 %760 мм1.5 м/с2 %
    06:00Ясно и безоблачно+11°C89 %760 мм2.4 м/с2 %
    09:00Ясно и безоблачно+20°C63 %761 мм2.7 м/с2 %
    12:00Небольшая облачность+22°C48 %761 мм2.8 м/с8 %
    15:00Практически безоблачно+23°C47 %761 мм1.9 м/с7 %
    18:00Ясно и безоблачно+22°C46 %760 мм1.2 м/с3 %
    21:00Ясно и безоблачно+16°C69 %761 мм1.9 м/с2 %
  • 21мая
    Вторник
    +12°
    +26°
    Практически безоблачно
    ВремяПогодаТемператураВлажностьДавлениеВетер, м/сВероятность осадков
    00:00Ясно и безоблачно+12°C78 %762 мм2.1 м/с2 %
    03:00Ясно и безоблачно+11°C82 %762 мм1.7 м/с2 %
    06:00Ясно и безоблачно+13°C78 %762 мм2.8 м/с2 %
    09:00Ясно и безоблачно+22°C49 %763 мм2.3 м/с2 %
    12:00Практически безоблачно+25°C38 %763 мм2.8 м/с2 %
    15:00Практически безоблачно+26°C32 %762 мм3.0 м/с2 %
    18:00Ясно и безоблачно+24°C36 %761 мм1.5 м/с2 %
    21:00Ясно и безоблачно+17°C49 %761 мм2.3 м/с2 %
  • 22мая
    Среда
    +12°
    +28°
    Ясно и безоблачно
    ВремяПогодаТемператураВлажностьДавлениеВетер, м/сВероятность осадков
    00:00Ясно и безоблачно+14°C57 %761 мм2.0 м/с2 %
    03:00Ясно и безоблачно+12°C64 %761 мм2.4 м/с2 %
    06:00Ясно и безоблачно+14°C57 %761 мм3.3 м/с2 %
    09:00Ясно и безоблачно+23°C40 %762 мм3.1 м/с2 %
    12:00Ясно и безоблачно+26°C26 %761 мм5.0 м/с2 %
    15:00Ясно и безоблачно+27°C26 %760 мм4.6 м/с2 %
    18:00Ясно и безоблачно+25°C32 %759 мм3.1 м/с2 %
    21:00Ясно и безоблачно+17°C57 %760 мм2.5 м/с2 %
  • 23мая
    Четверг
    +15°
    +28°
    Ясно и безоблачно
    ВремяПогодаТемператураВлажностьДавлениеВетер, м/сВероятность осадков
    00:00Ясно и безоблачно+14°C61 %759 мм2.1 м/с2 %
    03:00Ясно и безоблачно+13°C53 %759 мм2.9 м/с2 %
    06:00Ясно и безоблачно+14°C56 %760 мм3.7 м/с2 %
    09:00Ясно и безоблачно+23°C43 %760 мм3.5 м/с2 %
    12:00Ясно и безоблачно+27°C27 %760 мм5.8 м/с2 %
    15:00Ясно и безоблачно+28°C26 %759 мм4.9 м/с2 %
    18:00Ясно и безоблачно+25°C29 %759 мм4.4 м/с3 %
    21:00Ясно и безоблачно+20°C34 %760 мм4.3 м/с2 %
  • 24мая
    Пятница
    +13°
    +26°
    Ясно и безоблачно
    ВремяПогодаТемператураВлажностьДавлениеВетер, м/сВероятность осадков
    00:00Ясно и безоблачно+18°C43 %760 мм5.1 м/с2 %
    03:00Ясно и безоблачно+16°C59 %761 мм5.9 м/с2 %
    06:00Ясно и безоблачно+16°C71 %762 мм7.0 м/с2 %
    09:00Ясно и безоблачно+21°C52 %763 мм8.0 м/с2 %
    12:00Ясно и безоблачно+25°C39 %763 мм8.4 м/с2 %
    15:00Ясно и безоблачно+26°C34 %763 мм8.6 м/с2 %
    18:00Ясно и безоблачно+24°C33 %763 мм8.3 м/с2 %
    21:00Ясно и безоблачно+19°C28 %764 мм7.4 м/с2 %
Мы используем cookies
Соглашаюсь